sensor_id;sensor_type;location;lat;lon;timestamp;P1;durP1;ratioP1;P2;durP2;ratioP2
72284;SDS011;60220;53.552;10.092;2023-03-14T00:01:26;8.30;;;2.67;;
72284;SDS011;60220;53.552;10.092;2023-03-14T00:03:52;5.47;;;2.67;;
72284;SDS011;60220;53.552;10.092;2023-03-14T00:06:23;5.70;;;2.90;;
72284;SDS011;60220;53.552;10.092;2023-03-14T00:08:52;6.70;;;2.58;;
72284;SDS011;60220;53.552;10.092;2023-03-14T00:11:20;11.77;;;2.95;;
72284;SDS011;60220;53.552;10.092;2023-03-14T00:13:50;8.20;;;2.25;;
72284;SDS011;60220;53.552;10.092;2023-03-14T00:16:19;3.88;;;2.10;;
72284;SDS011;60220;53.552;10.092;2023-03-14T00:18:46;5.20;;;2.40;;
72284;SDS011;60220;53.552;10.092;2023-03-14T00:21:15;6.80;;;2.13;;
72284;SDS011;60220;53.552;10.092;2023-03-14T00:23:43;7.38;;;2.22;;
72284;SDS011;60220;53.552;10.092;2023-03-14T00:26:13;9.32;;;2.10;;
72284;SDS011;60220;53.552;10.092;2023-03-14T00:28:41;13.57;;;2.90;;
72284;SDS011;60220;53.552;10.092;2023-03-14T00:31:12;6.75;;;2.05;;
72284;SDS011;60220;53.552;10.092;2023-03-14T00:33:40;6.47;;;2.42;;
72284;SDS011;60220;53.552;10.092;2023-03-14T00:36:10;10.85;;;3.00;;
72284;SDS011;60220;53.552;10.092;2023-03-14T00:38:38;6.65;;;2.30;;
72284;SDS011;60220;53.552;10.092;2023-03-14T00:41:07;10.75;;;3.38;;
72284;SDS011;60220;53.552;10.092;2023-03-14T00:43:35;8.45;;;2.13;;
72284;SDS011;60220;53.552;10.092;2023-03-14T00:46:02;7.93;;;2.20;;
72284;SDS011;60220;53.552;10.092;2023-03-14T00:48:28;9.05;;;2.53;;
72284;SDS011;60220;53.552;10.092;2023-03-14T00:50:56;10.48;;;2.60;;
72284;SDS011;60220;53.552;10.092;2023-03-14T00:53:22;7.90;;;2.60;;
72284;SDS011;60220;53.552;10.092;2023-03-14T00:55:49;11.25;;;3.13;;
72284;SDS011;60220;53.552;10.092;2023-03-14T00:58:18;8.70;;;2.75;;
72284;SDS011;60220;53.552;10.092;2023-03-14T01:00:45;9.05;;;2.50;;
72284;SDS011;60220;53.552;10.092;2023-03-14T01:03:15;8.05;;;2.58;;
72284;SDS011;60220;53.552;10.092;2023-03-14T01:05:43;5.70;;;2.22;;
72284;SDS011;60220;53.552;10.092;2023-03-14T01:08:09;7.07;;;2.38;;
72284;SDS011;60220;53.552;10.092;2023-03-14T01:10:37;9.77;;;2.60;;
72284;SDS011;60220;53.552;10.092;2023-03-14T01:13:05;7.47;;;2.50;;
72284;SDS011;60220;53.552;10.092;2023-03-14T01:15:33;5.72;;;2.10;;
72284;SDS011;60220;53.552;10.092;2023-03-14T01:18:00;9.85;;;3.15;;
72284;SDS011;60220;53.552;10.092;2023-03-14T01:20:27;5.40;;;2.38;;
72284;SDS011;60220;53.552;10.092;2023-03-14T01:22:54;9.43;;;2.50;;
72284;SDS011;60220;53.552;10.092;2023-03-14T01:25:20;5.45;;;2.35;;
72284;SDS011;60220;53.552;10.092;2023-03-14T01:27:47;5.68;;;2.25;;
72284;SDS011;60220;53.552;10.092;2023-03-14T01:30:16;7.15;;;2.70;;
72284;SDS011;60220;53.552;10.092;2023-03-14T01:32:44;9.65;;;2.33;;
72284;SDS011;60220;53.552;10.092;2023-03-14T01:35:13;5.90;;;2.38;;
72284;SDS011;60220;53.552;10.092;2023-03-14T01:37:40;10.15;;;2.70;;
72284;SDS011;60220;53.552;10.092;2023-03-14T01:40:08;8.93;;;2.92;;
72284;SDS011;60220;53.552;10.092;2023-03-14T01:42:36;7.00;;;2.63;;
72284;SDS011;60220;53.552;10.092;2023-03-14T01:45:03;9.13;;;2.70;;
72284;SDS011;60220;53.552;10.092;2023-03-14T01:47:30;6.53;;;2.53;;
72284;SDS011;60220;53.552;10.092;2023-03-14T01:49:59;7.60;;;2.70;;
72284;SDS011;60220;53.552;10.092;2023-03-14T01:52:31;7.38;;;2.53;;
72284;SDS011;60220;53.552;10.092;2023-03-14T01:55:04;7.75;;;2.80;;
72284;SDS011;60220;53.552;10.092;2023-03-14T01:57:33;6.88;;;2.40;;
72284;SDS011;60220;53.552;10.092;2023-03-14T02:00:04;5.18;;;2.50;;
72284;SDS011;60220;53.552;10.092;2023-03-14T02:02:36;5.75;;;2.15;;
72284;SDS011;60220;53.552;10.092;2023-03-14T02:05:05;7.63;;;2.45;;
72284;SDS011;60220;53.552;10.092;2023-03-14T02:07:33;6.25;;;2.45;;
72284;SDS011;60220;53.552;10.092;2023-03-14T02:10:06;10.65;;;2.40;;
72284;SDS011;60220;53.552;10.092;2023-03-14T02:12:33;8.68;;;2.65;;
72284;SDS011;60220;53.552;10.092;2023-03-14T02:15:01;8.20;;;2.78;;
72284;SDS011;60220;53.552;10.092;2023-03-14T02:17:27;10.98;;;2.88;;
72284;SDS011;60220;53.552;10.092;2023-03-14T02:19:58;10.48;;;2.97;;
72284;SDS011;60220;53.552;10.092;2023-03-14T02:22:35;9.93;;;2.50;;
72284;SDS011;60220;53.552;10.092;2023-03-14T02:25:06;11.77;;;2.42;;
72284;SDS011;60220;53.552;10.092;2023-03-14T02:27:38;6.10;;;2.45;;
72284;SDS011;60220;53.552;10.092;2023-03-14T02:30:06;6.13;;;2.45;;
72284;SDS011;60220;53.552;10.092;2023-03-14T02:32:38;5.93;;;2.50;;
72284;SDS011;60220;53.552;10.092;2023-03-14T02:35:08;6.82;;;2.78;;
72284;SDS011;60220;53.552;10.092;2023-03-14T02:37:38;10.02;;;2.50;;
72284;SDS011;60220;53.552;10.092;2023-03-14T02:40:09;7.18;;;1.98;;
72284;SDS011;60220;53.552;10.092;2023-03-14T02:42:38;7.70;;;2.40;;
72284;SDS011;60220;53.552;10.092;2023-03-14T02:47:59;9.82;;;2.17;;
72284;SDS011;60220;53.552;10.092;2023-03-14T02:50:31;6.28;;;2.15;;
72284;SDS011;60220;53.552;10.092;2023-03-14T02:53:01;9.25;;;2.90;;
72284;SDS011;60220;53.552;10.092;2023-03-14T02:55:27;7.22;;;2.80;;
72284;SDS011;60220;53.552;10.092;2023-03-14T02:57:55;9.05;;;3.00;;
72284;SDS011;60220;53.552;10.092;2023-03-14T03:00:25;5.00;;;2.40;;
72284;SDS011;60220;53.552;10.092;2023-03-14T03:02:52;7.32;;;2.72;;
72284;SDS011;60220;53.552;10.092;2023-03-14T03:05:21;8.43;;;2.63;;
72284;SDS011;60220;53.552;10.092;2023-03-14T03:07:48;8.25;;;3.17;;
72284;SDS011;60220;53.552;10.092;2023-03-14T03:10:17;6.65;;;2.97;;
72284;SDS011;60220;53.552;10.092;2023-03-14T03:12:46;10.52;;;2.65;;
72284;SDS011;60220;53.552;10.092;2023-03-14T03:15:14;8.82;;;2.90;;
72284;SDS011;60220;53.552;10.092;2023-03-14T04:39:49;13.23;;;3.08;;
72284;SDS011;60220;53.552;10.092;2023-03-14T04:42:16;12.52;;;3.30;;
72284;SDS011;60220;53.552;10.092;2023-03-14T04:44:42;9.07;;;2.97;;
72284;SDS011;60220;53.552;10.092;2023-03-14T04:47:12;7.32;;;3.17;;
72284;SDS011;60220;53.552;10.092;2023-03-14T04:49:42;8.75;;;3.05;;
72284;SDS011;60220;53.552;10.092;2023-03-14T04:52:10;10.25;;;3.53;;
72284;SDS011;60220;53.552;10.092;2023-03-14T04:54:37;9.05;;;2.83;;
72284;SDS011;60220;53.552;10.092;2023-03-14T04:57:05;6.82;;;3.33;;
72284;SDS011;60220;53.552;10.092;2023-03-14T04:59:32;5.80;;;2.78;;
72284;SDS011;60220;53.552;10.092;2023-03-14T05:01:58;6.80;;;2.88;;
72284;SDS011;60220;53.552;10.092;2023-03-14T05:04:29;8.82;;;3.28;;
72284;SDS011;60220;53.552;10.092;2023-03-14T05:06:58;3.88;;;2.42;;
72284;SDS011;60220;53.552;10.092;2023-03-14T05:09:27;5.63;;;2.85;;
72284;SDS011;60220;53.552;10.092;2023-03-14T05:11:54;6.35;;;2.95;;
72284;SDS011;60220;53.552;10.092;2023-03-14T05:14:23;8.07;;;3.20;;
72284;SDS011;60220;53.552;10.092;2023-03-14T05:16:52;6.07;;;2.97;;
72284;SDS011;60220;53.552;10.092;2023-03-14T05:19:19;7.28;;;2.72;;
72284;SDS011;60220;53.552;10.092;2023-03-14T05:21:51;9.57;;;3.03;;
72284;SDS011;60220;53.552;10.092;2023-03-14T05:26:51;4.05;;;2.88;;
72284;SDS011;60220;53.552;10.092;2023-03-14T05:29:20;6.53;;;3.10;;
72284;SDS011;60220;53.552;10.092;2023-03-14T05:31:49;10.98;;;3.40;;
72284;SDS011;60220;53.552;10.092;2023-03-14T05:36:53;5.72;;;2.55;;
72284;SDS011;60220;53.552;10.092;2023-03-14T05:39:23;5.85;;;2.33;;
72284;SDS011;60220;53.552;10.092;2023-03-14T05:41:50;12.73;;;3.30;;
72284;SDS011;60220;53.552;10.092;2023-03-14T05:44:21;8.82;;;3.40;;
72284;SDS011;60220;53.552;10.092;2023-03-14T05:46:52;7.70;;;3.45;;
72284;SDS011;60220;53.552;10.092;2023-03-14T05:49:19;7.88;;;3.03;;
72284;SDS011;60220;53.552;10.092;2023-03-14T05:51:50;7.95;;;3.60;;
72284;SDS011;60220;53.552;10.092;2023-03-14T05:54:19;10.55;;;3.85;;
72284;SDS011;60220;53.552;10.092;2023-03-14T05:56:46;11.57;;;3.50;;
72284;SDS011;60220;53.552;10.092;2023-03-14T05:59:13;7.30;;;3.75;;
72284;SDS011;60220;53.552;10.092;2023-03-14T06:01:45;8.95;;;3.25;;
72284;SDS011;60220;53.552;10.092;2023-03-14T06:04:13;8.07;;;3.08;;
72284;SDS011;60220;53.552;10.092;2023-03-14T06:06:40;7.78;;;3.55;;
72284;SDS011;60220;53.552;10.092;2023-03-14T06:09:06;7.30;;;3.20;;
72284;SDS011;60220;53.552;10.092;2023-03-14T06:11:33;6.45;;;3.38;;
72284;SDS011;60220;53.552;10.092;2023-03-14T06:14:00;10.57;;;3.58;;
72284;SDS011;60220;53.552;10.092;2023-03-14T06:16:26;5.53;;;3.22;;
72284;SDS011;60220;53.552;10.092;2023-03-14T06:18:55;12.80;;;3.83;;
72284;SDS011;60220;53.552;10.092;2023-03-14T06:21:23;7.53;;;3.25;;
72284;SDS011;60220;53.552;10.092;2023-03-14T06:23:53;13.07;;;3.25;;
72284;SDS011;60220;53.552;10.092;2023-03-14T06:26:20;5.57;;;2.20;;
72284;SDS011;60220;53.552;10.092;2023-03-14T06:28:46;6.47;;;2.70;;
72284;SDS011;60220;53.552;10.092;2023-03-14T06:31:16;6.00;;;2.55;;
72284;SDS011;60220;53.552;10.092;2023-03-14T06:33:42;7.53;;;2.60;;
72284;SDS011;60220;53.552;10.092;2023-03-14T06:36:09;6.35;;;3.13;;
72284;SDS011;60220;53.552;10.092;2023-03-14T06:38:37;8.07;;;2.25;;
72284;SDS011;60220;53.552;10.092;2023-03-14T06:41:04;8.13;;;2.35;;
72284;SDS011;60220;53.552;10.092;2023-03-14T06:43:31;5.57;;;2.15;;
72284;SDS011;60220;53.552;10.092;2023-03-14T06:45:58;6.57;;;2.25;;
72284;SDS011;60220;53.552;10.092;2023-03-14T06:48:24;7.57;;;2.08;;
72284;SDS011;60220;53.552;10.092;2023-03-14T06:50:51;9.13;;;2.88;;
72284;SDS011;60220;53.552;10.092;2023-03-14T06:53:18;8.00;;;2.20;;
72284;SDS011;60220;53.552;10.092;2023-03-14T06:55:46;7.05;;;1.85;;
72284;SDS011;60220;53.552;10.092;2023-03-14T06:58:12;8.63;;;1.67;;
72284;SDS011;60220;53.552;10.092;2023-03-14T07:00:39;7.13;;;2.28;;
72284;SDS011;60220;53.552;10.092;2023-03-14T07:03:05;9.10;;;2.20;;
72284;SDS011;60220;53.552;10.092;2023-03-14T07:05:32;5.03;;;1.63;;
72284;SDS011;60220;53.552;10.092;2023-03-14T07:07:59;8.57;;;2.05;;
72284;SDS011;60220;53.552;10.092;2023-03-14T07:10:25;6.55;;;1.95;;
72284;SDS011;60220;53.552;10.092;2023-03-14T07:12:53;7.20;;;1.90;;
72284;SDS011;60220;53.552;10.092;2023-03-14T07:15:22;12.73;;;1.88;;
72284;SDS011;60220;53.552;10.092;2023-03-14T07:17:49;8.98;;;2.30;;
72284;SDS011;60220;53.552;10.092;2023-03-14T07:20:18;4.82;;;1.60;;
72284;SDS011;60220;53.552;10.092;2023-03-14T07:22:47;7.20;;;2.20;;
72284;SDS011;60220;53.552;10.092;2023-03-14T07:25:14;4.85;;;2.33;;
72284;SDS011;60220;53.552;10.092;2023-03-14T07:27:42;8.63;;;1.92;;
72284;SDS011;60220;53.552;10.092;2023-03-14T07:30:11;8.00;;;2.35;;
72284;SDS011;60220;53.552;10.092;2023-03-14T07:32:38;6.50;;;2.33;;
72284;SDS011;60220;53.552;10.092;2023-03-14T07:35:05;5.22;;;1.83;;
72284;SDS011;60220;53.552;10.092;2023-03-14T07:37:35;11.35;;;2.15;;
72284;SDS011;60220;53.552;10.092;2023-03-14T07:40:02;10.23;;;1.80;;
72284;SDS011;60220;53.552;10.092;2023-03-14T07:42:32;3.40;;;1.70;;
72284;SDS011;60220;53.552;10.092;2023-03-14T07:45:00;3.42;;;1.88;;
72284;SDS011;60220;53.552;10.092;2023-03-14T07:47:29;6.90;;;2.10;;
72284;SDS011;60220;53.552;10.092;2023-03-14T07:49:56;6.30;;;2.55;;
72284;SDS011;60220;53.552;10.092;2023-03-14T07:52:22;4.95;;;1.77;;
72284;SDS011;60220;53.552;10.092;2023-03-14T07:54:52;1.75;;;1.20;;
72284;SDS011;60220;53.552;10.092;2023-03-14T07:57:21;4.45;;;1.75;;
72284;SDS011;60220;53.552;10.092;2023-03-14T07:59:48;4.20;;;1.42;;
72284;SDS011;60220;53.552;10.092;2023-03-14T08:02:15;4.82;;;1.60;;
72284;SDS011;60220;53.552;10.092;2023-03-14T08:04:44;4.93;;;1.40;;
72284;SDS011;60220;53.552;10.092;2023-03-14T08:07:11;6.88;;;1.85;;
72284;SDS011;60220;53.552;10.092;2023-03-14T08:09:57;6.05;;;1.50;;
72284;SDS011;60220;53.552;10.092;2023-03-14T08:12:24;3.25;;;1.50;;
72284;SDS011;60220;53.552;10.092;2023-03-14T08:14:50;5.35;;;1.40;;
72284;SDS011;60220;53.552;10.092;2023-03-14T08:17:17;7.90;;;1.50;;
72284;SDS011;60220;53.552;10.092;2023-03-14T08:19:47;9.15;;;1.73;;
72284;SDS011;60220;53.552;10.092;2023-03-14T08:22:14;6.57;;;2.22;;
72284;SDS011;60220;53.552;10.092;2023-03-14T08:24:43;8.23;;;1.98;;
72284;SDS011;60220;53.552;10.092;2023-03-14T08:27:09;3.58;;;1.98;;
72284;SDS011;60220;53.552;10.092;2023-03-14T08:29:36;6.93;;;2.08;;
72284;SDS011;60220;53.552;10.092;2023-03-14T08:32:03;7.72;;;2.17;;
72284;SDS011;60220;53.552;10.092;2023-03-14T08:34:32;4.10;;;2.13;;
72284;SDS011;60220;53.552;10.092;2023-03-14T08:37:01;4.78;;;1.92;;
72284;SDS011;60220;53.552;10.092;2023-03-14T08:39:27;7.53;;;1.67;;
72284;SDS011;60220;53.552;10.092;2023-03-14T08:41:54;9.45;;;2.05;;
72284;SDS011;60220;53.552;10.092;2023-03-14T08:44:20;4.20;;;1.75;;
72284;SDS011;60220;53.552;10.092;2023-03-14T08:46:49;6.95;;;2.30;;
72284;SDS011;60220;53.552;10.092;2023-03-14T08:49:16;7.45;;;2.53;;
72284;SDS011;60220;53.552;10.092;2023-03-14T08:51:43;8.98;;;3.05;;
72284;SDS011;60220;53.552;10.092;2023-03-14T08:54:11;4.25;;;1.85;;
72284;SDS011;60220;53.552;10.092;2023-03-14T08:56:37;9.18;;;2.58;;
72284;SDS011;60220;53.552;10.092;2023-03-14T08:59:05;4.22;;;2.50;;
72284;SDS011;60220;53.552;10.092;2023-03-14T09:01:33;4.70;;;2.42;;
72284;SDS011;60220;53.552;10.092;2023-03-14T09:04:00;6.25;;;3.25;;
72284;SDS011;60220;53.552;10.092;2023-03-14T09:06:29;6.57;;;2.70;;
72284;SDS011;60220;53.552;10.092;2023-03-14T09:08:55;10.63;;;2.83;;
72284;SDS011;60220;53.552;10.092;2023-03-14T09:11:26;9.70;;;3.85;;
72284;SDS011;60220;53.552;10.092;2023-03-14T09:13:53;3.78;;;2.72;;
72284;SDS011;60220;53.552;10.092;2023-03-14T09:16:19;8.23;;;3.65;;
72284;SDS011;60220;53.552;10.092;2023-03-14T09:18:46;9.25;;;3.90;;
72284;SDS011;60220;53.552;10.092;2023-03-14T09:21:13;7.03;;;3.20;;
72284;SDS011;60220;53.552;10.092;2023-03-14T09:23:40;8.82;;;3.72;;
72284;SDS011;60220;53.552;10.092;2023-03-14T09:26:06;9.10;;;3.97;;
72284;SDS011;60220;53.552;10.092;2023-03-14T09:28:34;9.05;;;3.15;;
72284;SDS011;60220;53.552;10.092;2023-03-14T09:31:05;5.82;;;3.40;;
72284;SDS011;60220;53.552;10.092;2023-03-14T09:33:33;9.60;;;3.33;;
72284;SDS011;60220;53.552;10.092;2023-03-14T09:36:00;6.85;;;3.38;;
72284;SDS011;60220;53.552;10.092;2023-03-14T09:38:27;9.02;;;4.55;;
72284;SDS011;60220;53.552;10.092;2023-03-14T09:40:57;11.45;;;4.15;;
72284;SDS011;60220;53.552;10.092;2023-03-14T09:43:26;12.40;;;4.32;;
72284;SDS011;60220;53.552;10.092;2023-03-14T09:45:57;7.25;;;3.78;;
72284;SDS011;60220;53.552;10.092;2023-03-14T09:48:29;10.43;;;3.67;;
72284;SDS011;60220;53.552;10.092;2023-03-14T09:50:58;6.60;;;3.25;;
72284;SDS011;60220;53.552;10.092;2023-03-14T09:53:37;8.30;;;3.90;;
72284;SDS011;60220;53.552;10.092;2023-03-14T09:56:08;10.50;;;3.65;;
72284;SDS011;60220;53.552;10.092;2023-03-14T09:58:40;7.27;;;3.30;;
72284;SDS011;60220;53.552;10.092;2023-03-14T10:01:13;7.55;;;2.78;;
72284;SDS011;60220;53.552;10.092;2023-03-14T10:03:44;3.03;;;1.77;;
72284;SDS011;60220;53.552;10.092;2023-03-14T10:06:12;3.40;;;1.05;;
72284;SDS011;60220;53.552;10.092;2023-03-14T10:08:39;2.42;;;0.77;;
72284;SDS011;60220;53.552;10.092;2023-03-14T10:11:12;5.38;;;1.38;;
72284;SDS011;60220;53.552;10.092;2023-03-14T10:13:48;2.40;;;0.80;;
72284;SDS011;60220;53.552;10.092;2023-03-14T10:16:29;2.72;;;1.13;;
72284;SDS011;60220;53.552;10.092;2023-03-14T10:19:01;2.42;;;0.82;;
72284;SDS011;60220;53.552;10.092;2023-03-14T10:21:30;1.80;;;0.80;;
72284;SDS011;60220;53.552;10.092;2023-03-14T10:24:07;3.85;;;0.90;;
72284;SDS011;60220;53.552;10.092;2023-03-14T10:26:45;3.33;;;0.93;;
72284;SDS011;60220;53.552;10.092;2023-03-14T10:29:14;6.80;;;1.65;;
72284;SDS011;60220;53.552;10.092;2023-03-14T10:31:49;2.90;;;1.10;;
72284;SDS011;60220;53.552;10.092;2023-03-14T10:34:20;5.53;;;0.93;;
72284;SDS011;60220;53.552;10.092;2023-03-14T10:36:52;3.63;;;1.45;;
72284;SDS011;60220;53.552;10.092;2023-03-14T10:39:30;2.28;;;0.85;;
72284;SDS011;60220;53.552;10.092;2023-03-14T10:42:10;1.88;;;1.00;;
72284;SDS011;60220;53.552;10.092;2023-03-14T10:44:42;1.58;;;0.80;;
72284;SDS011;60220;53.552;10.092;2023-03-14T10:47:15;0.98;;;0.55;;
72284;SDS011;60220;53.552;10.092;2023-03-14T10:49:44;2.20;;;0.57;;
72284;SDS011;60220;53.552;10.092;2023-03-14T10:52:17;1.42;;;0.60;;
72284;SDS011;60220;53.552;10.092;2023-03-14T10:54:48;1.42;;;0.57;;
72284;SDS011;60220;53.552;10.092;2023-03-14T10:57:15;4.47;;;2.05;;
72284;SDS011;60220;53.552;10.092;2023-03-14T10:59:41;3.22;;;0.88;;
72284;SDS011;60220;53.552;10.092;2023-03-14T11:02:15;1.00;;;0.43;;
72284;SDS011;60220;53.552;10.092;2023-03-14T11:07:30;0.70;;;0.40;;
72284;SDS011;60220;53.552;10.092;2023-03-14T11:10:08;1.80;;;0.45;;
72284;SDS011;60220;53.552;10.092;2023-03-14T11:12:46;1.90;;;0.77;;
72284;SDS011;60220;53.552;10.092;2023-03-14T11:15:32;2.88;;;0.50;;
72284;SDS011;60220;53.552;10.092;2023-03-14T11:18:12;1.55;;;0.60;;
72284;SDS011;60220;53.552;10.092;2023-03-14T11:20:55;1.92;;;0.52;;
72284;SDS011;60220;53.552;10.092;2023-03-14T11:23:28;0.68;;;0.38;;
72284;SDS011;60220;53.552;10.092;2023-03-14T11:26:00;3.53;;;0.60;;
72284;SDS011;60220;53.552;10.092;2023-03-14T11:28:36;2.47;;;0.68;;
72284;SDS011;60220;53.552;10.092;2023-03-14T11:31:07;3.95;;;0.85;;
72284;SDS011;60220;53.552;10.092;2023-03-14T11:33:46;3.22;;;0.80;;
72284;SDS011;60220;53.552;10.092;2023-03-14T11:36:21;3.35;;;0.70;;
72284;SDS011;60220;53.552;10.092;2023-03-14T11:38:55;5.90;;;0.83;;
72284;SDS011;60220;53.552;10.092;2023-03-14T11:41:25;4.03;;;1.25;;
72284;SDS011;60220;53.552;10.092;2023-03-14T11:43:57;5.75;;;0.80;;
72284;SDS011;60220;53.552;10.092;2023-03-14T11:46:26;3.20;;;0.68;;
72284;SDS011;60220;53.552;10.092;2023-03-14T11:48:59;3.72;;;0.98;;
72284;SDS011;60220;53.552;10.092;2023-03-14T11:51:31;4.22;;;1.10;;
72284;SDS011;60220;53.552;10.092;2023-03-14T11:54:04;4.03;;;0.90;;
72284;SDS011;60220;53.552;10.092;2023-03-14T11:56:42;4.25;;;0.68;;
72284;SDS011;60220;53.552;10.092;2023-03-14T11:59:14;2.28;;;1.63;;
72284;SDS011;60220;53.552;10.092;2023-03-14T12:01:52;3.33;;;1.08;;
72284;SDS011;60220;53.552;10.092;2023-03-14T12:04:30;7.32;;;1.00;;
72284;SDS011;60220;53.552;10.092;2023-03-14T12:07:08;4.35;;;1.40;;
72284;SDS011;60220;53.552;10.092;2023-03-14T12:09:43;3.00;;;1.13;;
72284;SDS011;60220;53.552;10.092;2023-03-14T12:12:12;2.85;;;1.30;;
72284;SDS011;60220;53.552;10.092;2023-03-14T12:14:44;6.65;;;1.45;;
72284;SDS011;60220;53.552;10.092;2023-03-14T12:17:18;4.55;;;1.33;;
72284;SDS011;60220;53.552;10.092;2023-03-14T12:19:48;5.57;;;1.50;;
72284;SDS011;60220;53.552;10.092;2023-03-14T12:22:31;8.25;;;1.58;;
72284;SDS011;60220;53.552;10.092;2023-03-14T12:25:02;8.60;;;2.00;;
72284;SDS011;60220;53.552;10.092;2023-03-14T12:27:49;6.72;;;1.27;;
72284;SDS011;60220;53.552;10.092;2023-03-14T12:30:30;5.63;;;2.03;;
72284;SDS011;60220;53.552;10.092;2023-03-14T12:36:09;4.57;;;1.52;;
72284;SDS011;60220;53.552;10.092;2023-03-14T12:41:51;8.57;;;1.73;;
72284;SDS011;60220;53.552;10.092;2023-03-14T12:50:15;8.20;;;1.67;;
72284;SDS011;60220;53.552;10.092;2023-03-14T12:52:50;6.22;;;1.75;;
72284;SDS011;60220;53.552;10.092;2023-03-14T12:55:53;11.77;;;2.40;;
72284;SDS011;60220;53.552;10.092;2023-03-14T12:58:25;6.88;;;2.10;;
72284;SDS011;60220;53.552;10.092;2023-03-14T13:00:58;9.45;;;2.00;;
72284;SDS011;60220;53.552;10.092;2023-03-14T13:03:27;18.98;;;2.78;;
72284;SDS011;60220;53.552;10.092;2023-03-14T13:06:05;8.50;;;2.08;;
72284;SDS011;60220;53.552;10.092;2023-03-14T13:08:35;9.40;;;2.00;;
72284;SDS011;60220;53.552;10.092;2023-03-14T13:11:06;8.40;;;2.00;;
72284;SDS011;60220;53.552;10.092;2023-03-14T13:13:41;7.70;;;1.98;;
72284;SDS011;60220;53.552;10.092;2023-03-14T14:00:32;6.55;;;1.45;;
72284;SDS011;60220;53.552;10.092;2023-03-14T14:02:59;9.18;;;1.42;;
72284;SDS011;60220;53.552;10.092;2023-03-14T14:05:26;14.77;;;1.95;;
72284;SDS011;60220;53.552;10.092;2023-03-14T14:07:54;6.28;;;1.40;;
72284;SDS011;60220;53.552;10.092;2023-03-14T14:10:25;11.75;;;1.90;;
72284;SDS011;60220;53.552;10.092;2023-03-14T14:12:55;13.05;;;3.03;;
72284;SDS011;60220;53.552;10.092;2023-03-14T14:15:29;7.03;;;1.63;;
72284;SDS011;60220;53.552;10.092;2023-03-14T14:18:08;14.70;;;2.60;;
72284;SDS011;60220;53.552;10.092;2023-03-14T14:20:38;21.38;;;2.38;;
72284;SDS011;60220;53.552;10.092;2023-03-14T14:23:10;9.57;;;1.55;;
72284;SDS011;60220;53.552;10.092;2023-03-14T14:25:41;10.20;;;1.50;;
72284;SDS011;60220;53.552;10.092;2023-03-14T14:28:15;9.30;;;1.75;;
72284;SDS011;60220;53.552;10.092;2023-03-14T14:30:45;12.40;;;1.58;;
72284;SDS011;60220;53.552;10.092;2023-03-14T14:33:17;7.78;;;1.92;;
72284;SDS011;60220;53.552;10.092;2023-03-14T14:35:49;14.05;;;2.45;;
72284;SDS011;60220;53.552;10.092;2023-03-14T14:38:18;11.25;;;2.08;;
72284;SDS011;60220;53.552;10.092;2023-03-14T14:40:48;13.55;;;1.90;;
72284;SDS011;60220;53.552;10.092;2023-03-14T14:43:20;9.50;;;1.65;;
72284;SDS011;60220;53.552;10.092;2023-03-14T14:45:50;13.48;;;1.50;;
72284;SDS011;60220;53.552;10.092;2023-03-14T14:48:22;5.82;;;1.88;;
72284;SDS011;60220;53.552;10.092;2023-03-14T14:50:54;7.15;;;1.50;;
72284;SDS011;60220;53.552;10.092;2023-03-14T14:53:28;8.50;;;1.75;;
72284;SDS011;60220;53.552;10.092;2023-03-14T14:56:00;7.57;;;1.50;;
72284;SDS011;60220;53.552;10.092;2023-03-14T14:58:34;7.05;;;0.98;;
72284;SDS011;60220;53.552;10.092;2023-03-14T15:01:07;11.13;;;1.45;;
72284;SDS011;60220;53.552;10.092;2023-03-14T15:03:41;9.15;;;1.20;;
72284;SDS011;60220;53.552;10.092;2023-03-14T15:06:09;9.55;;;1.08;;
72284;SDS011;60220;53.552;10.092;2023-03-14T15:08:40;9.02;;;1.38;;
72284;SDS011;60220;53.552;10.092;2023-03-14T15:11:09;6.03;;;1.30;;
72284;SDS011;60220;53.552;10.092;2023-03-14T15:13:42;5.70;;;1.48;;
72284;SDS011;60220;53.552;10.092;2023-03-14T15:16:11;6.05;;;1.33;;
72284;SDS011;60220;53.552;10.092;2023-03-14T15:18:39;7.18;;;1.90;;
72284;SDS011;60220;53.552;10.092;2023-03-14T15:21:08;16.75;;;2.17;;
72284;SDS011;60220;53.552;10.092;2023-03-14T15:23:35;6.72;;;1.45;;
72284;SDS011;60220;53.552;10.092;2023-03-14T15:26:04;9.35;;;2.03;;
72284;SDS011;60220;53.552;10.092;2023-03-14T15:28:37;6.35;;;1.15;;
72284;SDS011;60220;53.552;10.092;2023-03-14T15:31:04;8.55;;;1.63;;
72284;SDS011;60220;53.552;10.092;2023-03-14T15:33:32;9.50;;;1.40;;
72284;SDS011;60220;53.552;10.092;2023-03-14T15:35:59;12.20;;;1.90;;
72284;SDS011;60220;53.552;10.092;2023-03-14T15:38:26;9.75;;;1.30;;
72284;SDS011;60220;53.552;10.092;2023-03-14T15:40:52;11.77;;;1.45;;
72284;SDS011;60220;53.552;10.092;2023-03-14T15:43:21;9.40;;;1.33;;
72284;SDS011;60220;53.552;10.092;2023-03-14T15:45:48;7.20;;;2.08;;
72284;SDS011;60220;53.552;10.092;2023-03-14T15:48:16;11.40;;;1.25;;
72284;SDS011;60220;53.552;10.092;2023-03-14T15:50:48;9.90;;;1.63;;
72284;SDS011;60220;53.552;10.092;2023-03-14T15:53:16;11.10;;;1.35;;
72284;SDS011;60220;53.552;10.092;2023-03-14T15:55:45;10.27;;;1.70;;
72284;SDS011;60220;53.552;10.092;2023-03-14T15:58:15;6.40;;;1.08;;
72284;SDS011;60220;53.552;10.092;2023-03-14T16:00:43;8.63;;;1.00;;
72284;SDS011;60220;53.552;10.092;2023-03-14T16:03:12;4.70;;;0.82;;
72284;SDS011;60220;53.552;10.092;2023-03-14T16:05:39;22.90;;;1.80;;
72284;SDS011;60220;53.552;10.092;2023-03-14T16:08:11;3.83;;;1.15;;
72284;SDS011;60220;53.552;10.092;2023-03-14T16:10:42;5.10;;;1.27;;
72284;SDS011;60220;53.552;10.092;2023-03-14T16:13:12;17.55;;;2.42;;
72284;SDS011;60220;53.552;10.092;2023-03-14T16:15:39;10.50;;;1.60;;
72284;SDS011;60220;53.552;10.092;2023-03-14T16:18:05;9.13;;;1.58;;
72284;SDS011;60220;53.552;10.092;2023-03-14T16:20:32;9.02;;;1.40;;
72284;SDS011;60220;53.552;10.092;2023-03-14T16:22:59;7.70;;;1.50;;
72284;SDS011;60220;53.552;10.092;2023-03-14T16:25:30;12.52;;;1.52;;
72284;SDS011;60220;53.552;10.092;2023-03-14T16:28:05;11.48;;;1.63;;
72284;SDS011;60220;53.552;10.092;2023-03-14T16:30:34;10.40;;;1.70;;
72284;SDS011;60220;53.552;10.092;2023-03-14T16:33:01;9.52;;;1.52;;
72284;SDS011;60220;53.552;10.092;2023-03-14T16:35:27;7.95;;;1.98;;
72284;SDS011;60220;53.552;10.092;2023-03-14T16:37:54;14.13;;;1.67;;
72284;SDS011;60220;53.552;10.092;2023-03-14T16:40:21;9.57;;;1.73;;
72284;SDS011;60220;53.552;10.092;2023-03-14T16:42:49;8.45;;;2.08;;
72284;SDS011;60220;53.552;10.092;2023-03-14T16:45:16;10.32;;;1.58;;
72284;SDS011;60220;53.552;10.092;2023-03-14T16:47:42;6.97;;;1.30;;
72284;SDS011;60220;53.552;10.092;2023-03-14T16:50:09;10.90;;;1.52;;
72284;SDS011;60220;53.552;10.092;2023-03-14T16:52:36;11.27;;;1.77;;
72284;SDS011;60220;53.552;10.092;2023-03-14T16:55:03;8.27;;;2.17;;
72284;SDS011;60220;53.552;10.092;2023-03-14T16:57:31;7.72;;;1.95;;
72284;SDS011;60220;53.552;10.092;2023-03-14T16:59:59;6.53;;;1.08;;
72284;SDS011;60220;53.552;10.092;2023-03-14T17:02:26;11.20;;;1.83;;
72284;SDS011;60220;53.552;10.092;2023-03-14T17:04:53;6.70;;;1.55;;
72284;SDS011;60220;53.552;10.092;2023-03-14T17:07:19;14.63;;;1.60;;
72284;SDS011;60220;53.552;10.092;2023-03-14T17:09:46;9.85;;;1.70;;
72284;SDS011;60220;53.552;10.092;2023-03-14T17:12:13;8.88;;;1.58;;
72284;SDS011;60220;53.552;10.092;2023-03-14T17:14:40;15.35;;;1.95;;
72284;SDS011;60220;53.552;10.092;2023-03-14T17:17:08;13.15;;;1.52;;